Time;durP1;ratioP1;P1;durP2;ratioP2;P2;SDS_P1;SDS_P2;PMS_P1;PMS_P2;Temp;Humidity;BMP_temperature;BMP_pressure;BME280_temperature;BME280_humidity;BME280_pressure;Samples;Min_cycle;Max_cycle;Signal;HPM_P1;HPM_P2
2024/04/11 00:00:02;;;;;;;3.60;2.17;;;16.10;86.50;;;;;;5450618;26;19991;-80
2024/04/11 00:02:29;;;;;;;3.03;2.10;;;16.10;86.60;;;;;;5452688;26;20003;-80
2024/04/11 00:04:54;;;;;;;3.33;2.03;;;16.10;86.40;;;;;;5450890;26;19991;-80
2024/04/11 00:07:20;;;;;;;4.88;2.20;;;16.10;86.40;;;;;;5452740;26;20005;-79
2024/04/11 00:09:45;;;;;;;3.13;1.90;;;16.10;87.10;;;;;;5452350;26;20002;-80
2024/04/11 00:12:11;;;;;;;4.85;2.30;;;16.10;86.40;;;;;;5450769;26;20001;-80
2024/04/11 00:14:36;;;;;;;3.70;2.10;;;16.10;86.80;;;;;;5452748;26;20002;-80
2024/04/11 00:17:02;;;;;;;4.70;2.38;;;16.00;86.30;;;;;;5452402;26;20003;-80
2024/04/11 00:19:27;;;;;;;2.83;2.00;;;16.10;86.70;;;;;;5451986;26;19995;-79
2024/04/11 00:21:53;;;;;;;4.10;2.28;;;16.00;86.50;;;;;;5451952;26;20005;-80
2024/04/11 00:24:18;;;;;;;4.05;2.15;;;16.10;86.40;;;;;;5452606;26;19987;-79
2024/04/11 00:26:46;;;;;;;3.67;1.98;;;15.90;86.60;;;;;;5452115;26;19991;-80
2024/04/11 00:29:12;;;;;;;4.47;2.30;;;16.00;86.80;;;;;;5450581;26;20002;-79
2024/04/11 00:31:38;;;;;;;3.40;2.10;;;16.00;86.80;;;;;;5450387;26;19987;-80
2024/04/11 00:34:23;;;;;;;3.55;2.15;;;16.00;86.40;;;;;;5452114;26;20402;-79
2024/04/11 00:36:50;;;;;;;3.28;2.00;;;16.10;87.10;;;;;;5452551;26;19999;-80
2024/04/11 00:39:20;;;;;;;3.85;2.20;;;16.10;86.80;;;;;;5451959;26;20368;-80
2024/04/11 00:41:47;;;;;;;3.40;2.00;;;16.00;86.70;;;;;;5451878;26;19999;-80
2024/04/11 00:44:16;;;;;;;3.55;2.25;;;16.10;86.60;;;;;;5452536;26;20505;-79
2024/04/11 00:46:42;;;;;;;3.00;1.92;;;15.90;86.90;;;;;;5453677;26;19999;-79
2024/04/11 00:49:08;;;;;;;4.25;2.08;;;15.90;86.70;;;;;;5455535;26;20044;-78
2024/04/11 00:51:34;;;;;;;4.18;2.10;;;16.10;86.50;;;;;;5453517;26;20010;-80
2024/04/11 00:54:00;;;;;;;3.03;2.00;;;16.00;86.90;;;;;;5453626;26;20451;-80
2024/04/11 00:56:26;;;;;;;4.70;2.10;;;16.00;86.30;;;;;;5453746;26;19995;-80
2024/04/11 00:58:52;;;;;;;3.10;1.90;;;16.00;86.70;;;;;;5453757;26;20002;-78
2024/04/11 01:01:18;;;;;;;4.13;2.58;;;16.10;87.00;;;;;;5454875;26;19991;-80
2024/04/11 01:03:47;;;;;;;4.13;2.22;;;16.10;86.60;;;;;;5455325;26;20052;-79
2024/04/11 01:06:13;;;;;;;3.20;2.00;;;16.00;86.90;;;;;;5455223;26;19999;-79
2024/04/11 01:08:41;;;;;;;3.70;2.03;;;16.00;86.90;;;;;;5455053;26;20003;-80
2024/04/11 01:11:07;;;;;;;3.45;2.10;;;16.00;86.70;;;;;;5454716;26;20006;-79
2024/04/11 01:13:34;;;;;;;3.63;2.17;;;16.00;86.50;;;;;;5453443;26;19995;-79
2024/04/11 01:16:01;;;;;;;3.28;1.98;;;16.00;87.00;;;;;;5453483;26;20010;-79
2024/04/11 01:18:26;;;;;;;3.05;1.90;;;16.00;86.80;;;;;;5453406;26;19991;-80
2024/04/11 01:20:52;;;;;;;3.00;1.85;;;16.00;86.70;;;;;;5454495;26;20068;-79
2024/04/11 01:23:18;;;;;;;3.65;2.20;;;16.00;86.70;;;;;;5454815;26;20417;-80
2024/04/11 01:25:44;;;;;;;4.30;2.15;;;16.10;86.70;;;;;;5453115;26;20006;-79
2024/04/11 01:28:10;;;;;;;5.30;2.25;;;16.10;86.70;;;;;;5454921;26;20006;-80
2024/04/11 01:30:35;;;;;;;3.92;2.00;;;16.00;86.80;;;;;;5454412;26;19995;-79
2024/04/11 01:33:01;;;;;;;3.25;1.80;;;16.00;86.70;;;;;;5453114;26;20014;-80
2024/04/11 01:35:30;;;;;;;3.83;2.05;;;16.00;86.80;;;;;;5454791;26;20492;-79
2024/04/11 01:37:58;;;;;;;3.83;2.03;;;16.00;86.70;;;;;;5454818;26;20042;-80
2024/04/11 01:40:29;;;;;;;3.30;2.08;;;16.00;86.90;;;;;;5452794;26;20439;-80
2024/04/11 01:42:55;;;;;;;4.43;2.00;;;16.00;87.20;;;;;;5453228;26;20010;-80
2024/04/11 01:45:20;;;;;;;3.10;1.80;;;15.90;86.80;;;;;;5454675;26;20006;-79
2024/04/11 01:47:46;;;;;;;3.30;1.90;;;16.00;87.20;;;;;;5452689;26;20002;-80
2024/04/11 01:50:12;;;;;;;3.25;2.00;;;15.90;86.80;;;;;;5452570;26;19995;-81
2024/04/11 01:52:37;;;;;;;3.22;2.00;;;16.00;87.00;;;;;;5454835;26;20009;-80
2024/04/11 01:55:03;;;;;;;4.20;2.10;;;16.00;86.90;;;;;;5451653;26;19999;-80
2024/04/11 01:57:28;;;;;;;3.30;1.88;;;16.00;87.10;;;;;;5454389;26;20038;-80
2024/04/11 01:59:55;;;;;;;4.28;2.00;;;16.10;87.10;;;;;;5452205;26;19999;-80
2024/04/11 02:02:21;;;;;;;4.18;2.00;;;15.90;86.90;;;;;;5452566;26;20009;-79
2024/04/11 02:04:48;;;;;;;3.95;1.95;;;16.00;87.20;;;;;;5453963;26;19999;-79
2024/04/11 02:07:14;;;;;;;4.18;2.10;;;16.00;86.80;;;;;;5452441;26;20002;-79
2024/04/11 02:09:40;;;;;;;4.20;2.00;;;16.00;86.70;;;;;;5454181;26;20479;-80
2024/04/11 02:12:06;;;;;;;3.03;1.85;;;16.00;86.80;;;;;;5452633;26;19999;-80
2024/04/11 02:14:32;;;;;;;2.40;1.70;;;16.00;86.90;;;;;;5452286;26;20548;-79
2024/04/11 02:16:59;;;;;;;3.20;1.83;;;16.00;87.00;;;;;;5452601;26;20320;-80
2024/04/11 02:19:26;;;;;;;3.10;1.70;;;15.80;87.20;;;;;;5452342;26;19995;-78
2024/04/11 02:21:52;;;;;;;3.85;2.08;;;15.90;87.00;;;;;;5452323;26;19995;-80
2024/04/11 02:24:18;;;;;;;3.72;2.10;;;15.90;86.80;;;;;;5453951;26;19995;-78
2024/04/11 02:26:47;;;;;;;3.03;1.70;;;16.00;87.10;;;;;;5454301;26;20045;-80
2024/04/11 02:29:14;;;;;;;3.80;1.77;;;15.90;87.00;;;;;;5452318;26;20021;-80
2024/04/11 02:31:41;;;;;;;5.05;2.10;;;16.00;87.10;;;;;;5454213;26;19995;-80
2024/04/11 02:34:07;;;;;;;3.45;1.90;;;16.00;87.10;;;;;;5454368;26;20043;-80
2024/04/11 02:36:34;;;;;;;4.13;2.15;;;16.00;87.00;;;;;;5452209;26;19998;-80
2024/04/11 02:39:01;;;;;;;2.83;1.90;;;15.80;87.10;;;;;;5452200;26;20010;-79
2024/04/11 02:41:27;;;;;;;3.03;1.80;;;15.80;86.70;;;;;;5453732;26;19999;-79
2024/04/11 02:43:55;;;;;;;3.08;1.80;;;15.90;86.90;;;;;;5451897;26;20010;-80
2024/04/11 02:46:21;;;;;;;3.03;1.80;;;15.90;86.90;;;;;;5452129;26;20018;-78
2024/04/11 02:48:50;;;;;;;2.90;1.80;;;15.90;87.10;;;;;;5451921;26;20381;-80
2024/04/11 02:51:17;;;;;;;3.80;1.90;;;15.90;87.00;;;;;;5453309;26;19995;-78
2024/04/11 02:53:43;;;;;;;3.85;2.05;;;15.90;87.00;;;;;;5451787;26;20010;-80
2024/04/11 02:56:09;;;;;;;3.30;2.00;;;16.00;87.10;;;;;;5453921;26;19995;-79
2024/04/11 02:58:38;;;;;;;3.58;1.90;;;16.00;86.80;;;;;;5453656;26;20068;-79
2024/04/11 03:01:08;;;;;;;3.45;1.92;;;15.90;87.00;;;;;;5451653;26;20009;-80
2024/04/11 03:03:34;;;;;;;2.60;1.73;;;15.90;86.60;;;;;;5451745;26;20439;-80
2024/04/11 03:06:26;;;;;;;2.63;1.70;;;16.00;86.60;;;;;;5451712;26;20007;-80
2024/04/11 03:08:53;;;;;;;3.60;2.00;;;15.90;86.70;;;;;;5448514;26;20063;-80
2024/04/11 03:11:19;;;;;;;2.30;1.63;;;15.90;86.80;;;;;;5451404;26;19990;-80
2024/04/11 03:13:45;;;;;;;4.03;1.85;;;15.90;86.90;;;;;;5451624;26;19998;-79
2024/04/11 03:16:11;;;;;;;3.30;1.98;;;15.90;87.00;;;;;;5453531;26;20431;-80
2024/04/11 03:18:39;;;;;;;3.30;1.83;;;15.90;86.80;;;;;;5453321;26;19991;-79
2024/04/11 03:21:05;;;;;;;3.70;1.67;;;16.00;86.90;;;;;;5451358;26;19991;-80
2024/04/11 03:23:31;;;;;;;3.25;1.70;;;16.00;87.20;;;;;;5453436;26;19995;-79
2024/04/11 03:25:58;;;;;;;2.92;1.70;;;15.80;86.70;;;;;;5451436;26;20037;-80
2024/04/11 03:28:26;;;;;;;3.42;1.92;;;16.00;87.00;;;;;;5453652;26;20005;-78
2024/04/11 03:31:08;;;;;;;2.97;1.70;;;15.90;86.90;;;;;;5451361;26;19991;-80
2024/04/11 03:33:34;;;;;;;3.63;1.90;;;15.90;86.60;;;;;;5451333;26;19999;-79
2024/04/11 03:36:05;;;;;;;3.72;1.70;;;16.00;87.00;;;;;;5451333;26;20459;-80
2024/04/11 03:38:31;;;;;;;2.70;1.60;;;16.00;86.90;;;;;;5453419;26;20003;-80
2024/04/11 03:41:10;;;;;;;3.58;1.70;;;16.00;87.00;;;;;;5453037;26;19995;-79
2024/04/11 03:43:37;;;;;;;3.00;1.70;;;15.90;86.80;;;;;;5452846;26;20002;-79
2024/04/11 03:46:20;;;;;;;3.05;1.70;;;15.90;86.70;;;;;;5452816;26;19995;-79
2024/04/11 03:48:56;;;;;;;2.90;1.60;;;15.90;86.60;;;;;;5453060;26;20006;-80
2024/04/11 03:51:29;;;;;;;4.03;1.88;;;15.90;86.90;;;;;;5451126;26;20034;-79
2024/04/11 03:53:56;;;;;;;3.70;1.75;;;15.90;86.40;;;;;;5450937;26;20343;-78
2024/04/11 03:56:23;;;;;;;3.55;1.50;;;15.90;86.50;;;;;;5452841;26;20010;-80
2024/04/11 03:58:49;;;;;;;2.83;1.60;;;15.90;86.70;;;;;;5452947;26;19990;-81
2024/04/11 04:01:15;;;;;;;3.00;1.70;;;15.90;86.50;;;;;;5450657;26;20003;-79
2024/04/11 04:03:42;;;;;;;2.75;1.63;;;15.90;86.50;;;;;;5452377;26;20421;-80
2024/04/11 04:06:08;;;;;;;2.28;1.50;;;15.90;87.10;;;;;;5452737;26;19990;-79
2024/04/11 04:08:35;;;;;;;4.13;1.80;;;15.90;86.70;;;;;;5452672;26;19995;-80
2024/04/11 04:11:00;;;;;;;2.78;1.60;;;15.90;86.40;;;;;;5450425;26;20324;-79
2024/04/11 04:13:27;;;;;;;2.47;1.52;;;15.80;86.70;;;;;;5450870;26;20063;-79
2024/04/11 04:15:55;;;;;;;2.15;1.45;;;15.80;86.60;;;;;;5484021;26;20002;-78
2024/04/11 04:18:21;;;;;;;2.67;1.42;;;15.90;86.80;;;;;;5480594;26;20030;-81
2024/04/11 04:20:57;;;;;;;3.10;1.55;;;15.90;86.90;;;;;;5454701;26;20331;-79
2024/04/11 04:23:24;;;;;;;2.90;1.63;;;15.90;86.50;;;;;;5449660;26;20006;-80
2024/04/11 04:26:01;;;;;;;3.03;1.65;;;15.90;86.50;;;;;;5447619;26;20006;-80
2024/04/11 04:28:32;;;;;;;3.70;1.65;;;15.90;86.60;;;;;;5447565;26;20459;-80
2024/04/11 04:31:34;;;;;;;2.45;1.60;;;15.90;86.60;;;;;;5446706;26;19998;-80
2024/04/11 04:34:01;;;;;;;2.80;1.52;;;15.90;86.60;;;;;;5339716;26;20008;-79
2024/04/11 04:36:29;;;;;;;3.13;1.80;;;15.90;86.60;;;;;;5449879;26;20075;-81
2024/04/11 04:38:56;;;;;;;3.15;1.70;;;15.90;86.80;;;;;;5446847;26;20320;-79
2024/04/11 04:41:26;;;;;;;2.65;1.50;;;15.90;86.90;;;;;;5448548;26;20149;-80
2024/04/11 04:43:54;;;;;;;2.50;1.40;;;15.90;86.70;;;;;;5447765;26;20089;-82
2024/04/11 04:46:21;;;;;;;3.08;1.45;;;15.70;86.70;;;;;;5446228;26;20014;-81
2024/04/11 04:48:47;;;;;;;2.53;1.50;;;15.90;86.80;;;;;;5446426;26;19991;-79
2024/04/11 04:51:13;;;;;;;2.60;1.60;;;15.90;86.70;;;;;;5446258;26;19995;-81
2024/04/11 04:53:40;;;;;;;3.13;1.70;;;15.90;86.90;;;;;;5446712;26;19995;-80
2024/04/11 04:56:07;;;;;;;2.30;1.42;;;15.90;86.80;;;;;;5448966;26;20002;-80
2024/04/11 04:58:33;;;;;;;2.83;1.60;;;15.90;86.60;;;;;;5446855;26;20712;-81
2024/04/11 05:01:00;;;;;;;1.90;1.30;;;15.90;86.60;;;;;;5447470;26;20002;-80
2024/04/11 05:03:28;;;;;;;2.50;1.30;;;15.90;86.60;;;;;;5448767;26;20005;-79
2024/04/11 05:05:54;;;;;;;4.05;1.50;;;15.90;86.40;;;;;;5483374;26;19998;-84
2024/04/11 05:08:23;;;;;;;3.17;1.52;;;15.90;86.90;;;;;;5483929;26;20438;-79
2024/04/11 05:10:56;;;;;;;2.63;1.45;;;15.80;86.50;;;;;;5513791;26;19994;-79
2024/04/11 05:13:26;;;;;;;2.70;1.60;;;15.70;86.40;;;;;;5513638;26;19998;-80
2024/04/11 05:15:56;;;;;;;2.57;1.37;;;15.80;86.80;;;;;;5484866;26;20026;-79
2024/04/11 05:18:22;;;;;;;3.10;1.55;;;15.90;86.50;;;;;;5484512;26;20038;-79
2024/04/11 05:20:47;;;;;;;3.10;1.40;;;15.80;86.40;;;;;;5484268;26;19994;-80
2024/04/11 05:23:14;;;;;;;2.97;1.23;;;15.90;86.90;;;;;;5484339;26;20010;-79
2024/04/11 05:25:39;;;;;;;4.20;1.63;;;15.90;86.50;;;;;;5513960;26;20009;-79
2024/04/11 05:28:07;;;;;;;2.67;1.40;;;15.80;86.60;;;;;;5483967;26;19998;-80
2024/04/11 05:30:33;;;;;;;2.58;1.38;;;15.90;86.70;;;;;;5514110;26;19998;-79
2024/04/11 05:32:59;;;;;;;3.83;1.45;;;15.90;86.90;;;;;;5517152;26;19994;-78
2024/04/11 05:35:26;;;;;;;3.85;1.45;;;15.90;86.40;;;;;;5516347;26;20004;-79
2024/04/11 05:37:55;;;;;;;3.65;1.67;;;15.80;86.30;;;;;;5488197;26;20461;-79
2024/04/11 05:40:21;;;;;;;3.05;1.40;;;15.90;87.00;;;;;;5488196;26;20010;-80
2024/04/11 05:42:48;;;;;;;4.60;1.50;;;15.90;86.40;;;;;;5488392;26;19998;-79
2024/04/11 05:45:21;;;;;;;2.47;1.20;;;15.90;86.50;;;;;;5517401;26;20083;-80
2024/04/11 05:47:47;;;;;;;3.60;1.50;;;15.90;86.50;;;;;;5488072;26;20006;-79
2024/04/11 05:50:16;;;;;;;3.55;1.50;;;15.90;86.40;;;;;;5488185;26;20070;-79
2024/04/11 05:52:42;;;;;;;2.75;1.33;;;15.90;86.50;;;;;;5488531;26;19990;-79
2024/04/11 05:55:10;;;;;;;3.95;1.50;;;15.80;86.40;;;;;;5488247;26;20051;-79
2024/04/11 05:57:36;;;;;;;2.50;1.30;;;15.80;86.50;;;;;;5517084;26;20070;-78
2024/04/11 06:00:03;;;;;;;3.20;1.52;;;15.90;86.80;;;;;;5487293;26;20002;-79
2024/04/11 06:02:34;;;;;;;3.80;1.40;;;15.90;86.70;;;;;;5487836;26;20043;-79
2024/04/11 06:05:01;;;;;;;2.65;1.20;;;15.90;86.60;;;;;;5516765;26;20013;-79
2024/04/11 06:07:29;;;;;;;2.78;1.30;;;15.90;86.70;;;;;;5516049;26;20022;-79
2024/04/11 06:09:58;;;;;;;2.67;1.33;;;15.80;86.70;;;;;;5515982;26;20002;-79
2024/04/11 06:12:23;;;;;;;3.40;1.45;;;15.90;86.80;;;;;;5516293;26;19998;-79
2024/04/11 06:14:49;;;;;;;2.60;1.42;;;15.80;86.80;;;;;;5515768;26;20047;-79
2024/04/11 06:17:15;;;;;;;2.95;1.33;;;15.90;86.80;;;;;;5487262;26;20367;-78
2024/04/11 06:19:40;;;;;;;2.45;1.30;;;15.90;86.80;;;;;;5515826;26;19994;-79
2024/04/11 06:22:06;;;;;;;3.10;1.38;;;15.90;86.90;;;;;;5486870;26;20005;-79
2024/04/11 06:24:35;;;;;;;2.25;1.30;;;15.70;86.70;;;;;;5487030;26;20009;-79
2024/04/11 06:27:05;;;;;;;2.08;1.25;;;15.90;86.80;;;;;;5516052;26;20073;-79
2024/04/11 06:29:37;;;;;;;2.45;1.17;;;15.80;86.70;;;;;;5515407;26;20030;-79
2024/04/11 06:32:06;;;;;;;1.90;1.23;;;16.00;86.80;;;;;;5487206;26;20533;-79
2024/04/11 06:34:33;;;;;;;2.58;1.33;;;15.90;86.60;;;;;;5486739;26;20068;-78
2024/04/11 06:36:58;;;;;;;1.73;1.05;;;15.80;86.60;;;;;;5486504;26;20042;-79
2024/04/11 06:39:25;;;;;;;2.80;1.50;;;15.70;86.20;;;;;;5515682;26;19998;-79
2024/04/11 06:41:51;;;;;;;2.13;1.23;;;15.90;86.20;;;;;;5514928;26;20039;-78
2024/04/11 06:44:17;;;;;;;3.53;1.40;;;15.90;86.30;;;;;;5515521;26;19998;-78
2024/04/11 06:46:47;;;;;;;2.47;1.10;;;15.90;86.20;;;;;;5486395;26;19998;-78
2024/04/11 06:49:12;;;;;;;2.47;1.23;;;15.90;86.20;;;;;;5514878;26;19994;-79
2024/04/11 06:51:39;;;;;;;2.88;1.20;;;15.90;86.20;;;;;;5515241;26;20006;-79
2024/04/11 06:54:05;;;;;;;3.65;1.40;;;15.80;86.30;;;;;;5515475;26;20004;-78
2024/04/11 06:56:58;;;;;;;2.30;1.30;;;15.90;86.40;;;;;;5486499;26;19998;-78
2024/04/11 06:59:24;;;;;;;2.40;1.13;;;15.80;86.50;;;;;;5486001;26;20006;-79
2024/04/11 07:01:51;;;;;;;2.10;1.13;;;15.80;86.30;;;;;;5486356;26;19998;-79
2024/04/11 07:04:17;;;;;;;2.45;1.27;;;15.90;86.50;;;;;;5486332;26;19997;-79
2024/04/11 07:06:46;;;;;;;2.30;1.17;;;15.90;86.30;;;;;;5515167;26;20001;-78
2024/04/11 07:09:12;;;;;;;2.67;1.20;;;15.80;86.30;;;;;;5515596;26;20001;-79
2024/04/11 07:11:40;;;;;;;3.28;1.23;;;15.70;86.40;;;;;;5515729;26;19994;-78
2024/04/11 07:14:11;;;;;;;2.03;1.13;;;15.90;86.20;;;;;;5486057;26;20082;-78
2024/04/11 07:16:44;;;;;;;2.25;1.20;;;15.70;86.30;;;;;;5486374;26;20821;-79
2024/04/11 07:19:11;;;;;;;1.70;1.10;;;15.80;86.00;;;;;;5515380;26;19990;-79
2024/04/11 07:21:38;;;;;;;2.80;1.20;;;15.90;85.80;;;;;;5485444;26;20005;-79
2024/04/11 07:24:05;;;;;;;2.15;1.00;;;15.80;85.90;;;;;;5514950;26;20342;-78
2024/04/11 07:26:32;;;;;;;2.70;1.10;;;15.80;86.00;;;;;;5514763;26;20706;-79
2024/04/11 07:29:01;;;;;;;2.40;1.35;;;15.90;85.90;;;;;;5485956;26;20043;-79
2024/04/11 07:31:28;;;;;;;2.47;1.10;;;15.80;86.10;;;;;;5484975;26;19998;-79
2024/04/11 07:33:55;;;;;;;3.05;1.20;;;15.80;85.80;;;;;;5486174;26;20078;-79
2024/04/11 07:36:22;;;;;;;2.13;1.10;;;15.90;85.70;;;;;;5514869;26;20002;-77
2024/04/11 07:38:48;;;;;;;2.60;1.08;;;15.90;85.80;;;;;;5485801;26;19989;-78
2024/04/11 07:41:18;;;;;;;2.88;1.10;;;15.80;85.60;;;;;;5485787;26;20060;-78
2024/04/11 07:43:51;;;;;;;3.22;1.30;;;15.80;85.60;;;;;;5492097;25;19997;-79
2024/04/11 07:46:18;;;;;;;2.33;1.10;;;15.90;85.70;;;;;;5455128;26;20414;-79
2024/04/11 07:48:48;;;;;;;1.92;1.00;;;15.90;85.70;;;;;;5461727;26;19998;-79
2024/04/11 07:51:16;;;;;;;1.58;1.00;;;15.80;85.60;;;;;;5490918;26;20025;-78
2024/04/11 07:53:46;;;;;;;1.60;0.95;;;15.90;85.70;;;;;;5550022;25;19994;-78
2024/04/11 07:56:15;;;;;;;2.90;1.10;;;15.90;85.80;;;;;;5522509;26;20005;-78
2024/04/11 07:58:40;;;;;;;2.53;1.00;;;15.90;85.50;;;;;;5522172;25;20013;-77
2024/04/11 08:01:08;;;;;;;4.65;1.30;;;15.90;85.60;;;;;;5551004;25;19997;-78
2024/04/11 08:03:34;;;;;;;2.45;1.10;;;15.90;85.60;;;;;;5551255;25;19997;-78
2024/04/11 08:06:00;;;;;;;2.58;1.10;;;15.90;85.80;;;;;;5534399;25;20458;-79
2024/04/11 08:08:26;;;;;;;1.25;0.90;;;15.80;85.90;;;;;;5485483;26;19998;-78
2024/04/11 08:11:02;;;;;;;1.75;1.15;;;15.80;85.90;;;;;;5514172;26;20005;-78
2024/04/11 08:13:30;;;;;;;1.85;1.00;;;15.80;86.00;;;;;;5514220;26;19998;-79
2024/04/11 08:15:56;;;;;;;1.88;1.02;;;15.80;86.20;;;;;;5485253;26;20068;-78
2024/04/11 08:18:22;;;;;;;2.47;1.13;;;15.80;86.20;;;;;;5514210;26;20002;-79
2024/04/11 08:20:48;;;;;;;1.92;1.00;;;15.90;86.40;;;;;;5513588;26;19994;-78
2024/04/11 08:23:17;;;;;;;2.67;1.08;;;15.80;86.20;;;;;;5485205;26;20018;-79
2024/04/11 08:25:42;;;;;;;2.85;1.17;;;15.90;86.30;;;;;;5513605;26;20052;-79
2024/04/11 08:28:11;;;;;;;2.80;0.95;;;15.70;86.20;;;;;;5513814;26;19998;-79
2024/04/11 08:30:37;;;;;;;2.35;1.10;;;15.80;86.30;;;;;;5514009;26;19998;-79
2024/04/11 08:33:09;;;;;;;2.47;1.13;;;15.70;86.20;;;;;;5488002;26;20005;-77
2024/04/11 08:35:35;;;;;;;2.33;1.10;;;15.80;86.50;;;;;;5519856;25;20017;-79
2024/04/11 08:38:03;;;;;;;2.17;1.20;;;15.90;86.40;;;;;;5551216;25;20509;-79
2024/04/11 08:40:31;;;;;;;2.78;1.10;;;15.80;86.70;;;;;;5521241;26;20069;-78
2024/04/11 08:42:57;;;;;;;2.33;1.23;;;15.90;87.40;;;;;;5551058;25;19994;-79
2024/04/11 08:45:25;;;;;;;2.42;1.13;;;15.80;86.80;;;;;;5521353;25;20070;-79
2024/04/11 08:47:51;;;;;;;2.53;1.30;;;15.90;87.00;;;;;;5521384;26;20004;-79
2024/04/11 08:50:17;;;;;;;2.55;1.10;;;15.90;86.40;;;;;;5519456;26;19993;-79
2024/04/11 08:52:45;;;;;;;2.58;1.15;;;15.90;86.50;;;;;;5521579;26;20342;-79
2024/04/11 08:55:14;;;;;;;2.05;1.00;;;15.80;85.90;;;;;;5551683;25;19994;-79
2024/04/11 08:57:40;;;;;;;2.95;1.10;;;15.80;85.90;;;;;;5550962;25;19993;-79
2024/04/11 09:00:12;;;;;;;4.20;1.17;;;15.90;86.30;;;;;;5521070;26;20372;-78
2024/04/11 09:02:41;;;;;;;2.75;1.10;;;15.90;85.90;;;;;;5519739;25;19994;-79
2024/04/11 09:05:10;;;;;;;1.52;0.90;;;15.90;86.50;;;;;;5523564;25;20653;-79
2024/04/11 09:07:37;;;;;;;2.58;1.10;;;15.90;86.70;;;;;;5554318;25;20403;-79
2024/04/11 09:10:05;;;;;;;1.90;0.80;;;15.80;86.30;;;;;;5524925;25;20053;-79
2024/04/11 09:12:31;;;;;;;2.58;1.08;;;15.90;86.10;;;;;;5554140;25;20025;-79
2024/04/11 09:14:56;;;;;;;2.53;1.20;;;15.90;86.10;;;;;;5524993;25;20009;-79
2024/04/11 09:17:22;;;;;;;3.08;1.05;;;15.90;86.40;;;;;;5524800;25;20436;-78
2024/04/11 09:19:49;;;;;;;2.40;1.10;;;15.90;86.60;;;;;;5524717;26;19997;-78
2024/04/11 09:22:16;;;;;;;2.15;1.00;;;15.80;86.70;;;;;;5524853;26;20004;-78
2024/04/11 09:24:45;;;;;;;1.98;0.95;;;15.90;87.00;;;;;;5553889;25;20007;-79
2024/04/11 09:27:15;;;;;;;1.95;1.15;;;15.90;87.20;;;;;;5520409;25;20010;-79
2024/04/11 09:29:41;;;;;;;2.28;1.05;;;15.90;86.70;;;;;;5485752;26;20004;-79
2024/04/11 09:32:08;;;;;;;2.20;1.10;;;15.90;86.60;;;;;;5487300;26;19990;-79
2024/04/11 09:34:38;;;;;;;2.72;1.10;;;15.90;86.70;;;;;;5485669;26;20006;-78
2024/04/11 09:37:09;;;;;;;2.22;0.80;;;15.90;86.70;;;;;;5486091;26;19997;-78
2024/04/11 09:39:45;;;;;;;1.45;1.00;;;15.90;86.80;;;;;;5485601;26;20016;-79
2024/04/11 09:42:12;;;;;;;2.15;1.05;;;16.00;87.00;;;;;;5486246;26;20499;-79
2024/04/11 09:44:47;;;;;;;2.00;1.00;;;15.90;86.60;;;;;;5485822;26;20443;-78
2024/04/11 09:47:19;;;;;;;2.10;1.10;;;15.90;87.10;;;;;;5485758;26;20070;-78
2024/04/11 09:50:04;;;;;;;2.53;1.00;;;15.90;87.70;;;;;;5485709;26;19995;-79
2024/04/11 09:52:34;;;;;;;1.98;1.10;;;16.00;87.20;;;;;;5487904;26;19994;-78
2024/04/11 09:55:07;;;;;;;2.25;1.02;;;15.90;87.20;;;;;;5485926;26;20005;-79
2024/04/11 09:57:36;;;;;;;2.20;1.10;;;15.80;87.30;;;;;;5487557;26;20479;-79
2024/04/11 10:00:18;;;;;;;2.58;0.95;;;15.90;87.30;;;;;;5487599;26;19998;-79
2024/04/11 10:02:45;;;;;;;1.58;0.90;;;15.90;87.30;;;;;;5485913;26;19998;-79
2024/04/11 10:05:16;;;;;;;1.48;0.90;;;15.90;87.50;;;;;;5487339;26;19998;-79
2024/04/11 10:07:41;;;;;;;1.25;0.82;;;15.90;87.70;;;;;;5486821;26;20478;-79
2024/04/11 10:10:29;;;;;;;2.17;0.90;;;15.90;87.70;;;;;;5485257;26;20026;-79
2024/04/11 10:13:05;;;;;;;2.22;0.88;;;15.90;87.70;;;;;;5487041;26;19994;-79
2024/04/11 10:15:33;;;;;;;2.33;1.20;;;15.90;87.80;;;;;;5486732;26;20350;-79
2024/04/11 10:18:09;;;;;;;1.90;0.90;;;15.90;87.50;;;;;;5485473;26;19995;-79
2024/04/11 10:21:05;;;;;;;2.55;0.90;;;15.90;87.60;;;;;;5485134;26;20006;-78
2024/04/11 10:23:37;;;;;;;3.03;1.10;;;15.90;87.70;;;;;;5487410;26;19998;-79
2024/04/11 10:26:14;;;;;;;1.98;0.93;;;15.90;87.70;;;;;;5484871;26;19998;-78
2024/04/11 10:28:51;;;;;;;2.67;1.02;;;15.90;87.80;;;;;;5484881;26;20002;-78
2024/04/11 10:31:19;;;;;;;1.02;0.80;;;15.80;87.80;;;;;;5484978;26;20368;-78
2024/04/11 10:33:58;;;;;;;1.45;0.90;;;15.90;87.90;;;;;;5485022;26;20001;-79
2024/04/11 10:36:25;;;;;;;2.40;1.00;;;15.90;87.90;;;;;;5484788;26;20043;-79
2024/04/11 10:38:57;;;;;;;2.30;1.08;;;15.90;87.90;;;;;;5485073;26;20034;-79
2024/04/11 10:41:23;;;;;;;1.90;0.82;;;15.80;87.80;;;;;;5486980;26;19994;-78
2024/04/11 10:43:51;;;;;;;2.45;1.00;;;16.00;88.10;;;;;;5485319;26;19997;-79
2024/04/11 10:46:20;;;;;;;2.35;0.88;;;15.90;88.00;;;;;;5485045;26;20841;-79
2024/04/11 10:48:52;;;;;;;0.85;0.70;;;15.90;88.00;;;;;;5485638;26;20411;-78
2024/04/11 10:51:22;;;;;;;;;;;15.90;88.10;;;;;;5487330;26;20002;-79
2024/04/11 10:54:08;;;;;;;2.67;1.00;;;15.90;88.00;;;;;;5484359;26;19924;-79
2024/04/11 10:56:41;;;;;;;3.25;1.00;;;15.90;87.90;;;;;;5487189;26;20479;-79
2024/04/11 10:59:22;;;;;;;1.88;0.90;;;15.90;88.00;;;;;;5484621;26;20006;-79
2024/04/11 11:01:57;;;;;;;1.77;0.90;;;15.90;87.90;;;;;;5486265;26;20433;-79
2024/04/11 11:04:25;;;;;;;2.42;1.00;;;15.90;87.90;;;;;;5486730;26;20005;-79
2024/04/11 11:06:54;;;;;;;1.75;0.93;;;15.90;87.90;;;;;;5486340;26;20006;-78
2024/04/11 11:09:23;;;;;;;3.08;1.10;;;16.00;87.90;;;;;;5484741;26;20009;-80
2024/04/11 11:11:54;;;;;;;2.05;0.90;;;15.90;87.60;;;;;;5485854;26;20039;-79
2024/04/11 11:14:24;;;;;;;2.83;1.10;;;15.90;87.60;;;;;;5484826;26;19995;-79
2024/04/11 11:16:50;;;;;;;1.88;0.93;;;16.00;87.70;;;;;;5484683;26;19991;-79
2024/04/11 11:19:22;;;;;;;1.67;0.90;;;16.00;87.60;;;;;;5484216;26;19998;-79
2024/04/11 11:21:55;;;;;;;1.23;0.85;;;16.10;87.50;;;;;;5484101;26;20006;-78
2024/04/11 11:24:24;;;;;;;1.95;0.80;;;16.00;87.40;;;;;;5486370;26;20065;-79
2024/04/11 11:26:54;;;;;;;1.50;0.85;;;15.90;87.40;;;;;;5483885;26;19998;-79
2024/04/11 11:29:25;;;;;;;1.52;0.90;;;16.10;87.40;;;;;;5484079;26;20442;-78
2024/04/11 11:31:53;;;;;;;2.63;0.95;;;16.10;87.40;;;;;;5486570;26;20009;-79
2024/04/11 11:34:27;;;;;;;1.73;0.85;;;16.10;87.40;;;;;;5483852;26;20010;-78
2024/04/11 11:36:58;;;;;;;3.05;0.90;;;16.20;87.30;;;;;;5484186;26;19994;-78
2024/04/11 11:39:26;;;;;;;2.40;1.20;;;16.10;87.20;;;;;;5485742;26;19994;-78
2024/04/11 11:42:03;;;;;;;2.63;0.90;;;16.10;87.20;;;;;;5484009;26;19994;-79
2024/04/11 11:44:45;;;;;;;3.13;1.00;;;16.10;87.30;;;;;;5486421;26;20009;-79
2024/04/11 11:47:10;;;;;;;1.50;0.80;;;16.10;87.30;;;;;;5485640;26;19994;-79
2024/04/11 11:49:37;;;;;;;0.80;0.70;;;16.10;87.30;;;;;;5484111;26;20005;-80
2024/04/11 11:52:03;;;;;;;2.42;1.00;;;16.10;87.30;;;;;;5484797;26;20338;-82
2024/04/11 11:54:34;;;;;;;2.33;1.00;;;16.10;87.40;;;;;;5485516;26;19990;-79
2024/04/11 11:57:17;;;;;;;1.75;0.85;;;16.10;87.40;;;;;;5485837;26;20005;-79
2024/04/11 11:59:44;;;;;;;2.10;0.80;;;16.00;87.40;;;;;;5485194;26;20068;-79
2024/04/11 12:02:13;;;;;;;1.38;0.85;;;16.00;87.40;;;;;;5483706;26;20091;-80
2024/04/11 12:04:45;;;;;;;1.35;0.80;;;16.10;87.40;;;;;;5485619;26;20459;-79
2024/04/11 12:07:14;;;;;;;2.00;0.93;;;16.10;87.40;;;;;;5485411;26;20010;-79
2024/04/11 12:09:43;;;;;;;2.15;1.00;;;16.10;87.50;;;;;;5485239;26;20036;-79
2024/04/11 12:12:20;;;;;;;2.00;1.08;;;16.10;87.50;;;;;;5483837;26;20022;-79
2024/04/11 12:14:54;;;;;;;1.98;0.90;;;16.00;87.40;;;;;;5485352;26;20430;-79
2024/04/11 12:17:24;;;;;;;2.05;0.80;;;16.10;87.50;;;;;;5483788;26;20339;-79
2024/04/11 12:19:53;;;;;;;1.85;0.90;;;16.10;87.50;;;;;;5484647;26;20518;-79
2024/04/11 12:22:19;;;;;;;1.75;0.85;;;16.00;87.50;;;;;;5483343;26;20062;-79
2024/04/11 12:24:46;;;;;;;1.88;0.93;;;16.10;87.50;;;;;;5484946;26;20692;-79
2024/04/11 12:27:15;;;;;;;2.22;0.80;;;16.10;87.50;;;;;;5483472;26;20005;-79
2024/04/11 12:29:42;;;;;;;1.60;0.80;;;16.10;87.50;;;;;;5483370;26;19994;-79
2024/04/11 12:32:12;;;;;;;1.85;0.93;;;16.10;87.30;;;;;;5485139;26;20006;-79
2024/04/11 12:34:45;;;;;;;1.67;0.85;;;16.10;87.40;;;;;;5485411;26;20438;-79
2024/04/11 12:37:13;;;;;;;2.30;0.80;;;16.20;87.40;;;;;;5483266;26;20005;-79
2024/04/11 12:39:45;;;;;;;2.03;0.90;;;16.10;87.50;;;;;;5483686;26;20043;-78
2024/04/11 12:42:17;;;;;;;1.60;1.00;;;16.10;87.60;;;;;;5483174;26;19993;-79
2024/04/11 12:44:46;;;;;;;1.90;1.00;;;16.10;87.60;;;;;;5482947;26;20009;-79
2024/04/11 12:47:16;;;;;;;3.03;0.80;;;16.10;87.60;;;;;;5482712;26;19998;-79
2024/04/11 12:49:48;;;;;;;1.80;0.77;;;16.00;88.10;;;;;;5482414;26;20005;-79
2024/04/11 12:52:22;;;;;;;2.25;0.90;;;16.10;87.70;;;;;;5481972;26;19998;-79
2024/04/11 12:55:00;;;;;;;1.75;0.80;;;16.10;87.70;;;;;;5483078;26;20058;-80